PWSweather.com
Personal Weather Stations
Station Observations
SKYDIVEKS
Skydive Kansas, Osage City, KS 66523

Skydive KansasOsage City, KS 66523

Lat: 38.636, Lon: -95.803

Elevation: 1080

Station Type: La Crosse

http://www.skydivekansas.com

Latest ConditionsUpdated 7:15:00 PM CDT Tuesday, Aug 30, 2016
Currently Today's Max Today's Min Today's Average
Temperature 85.3°F29.6°C 109.4°F43.0°C 74.1°F23.4°C 86.5°F30.3°C
Dew Point 69.3°F20.7°C 80.1°F26.7°C 63.2°F17.3°C 69.8°F21.0°C
Winds 4.3 mph NE6.9 kmh NE 11.2 mph N18.0 kmh N - 3.0 mph 4.8 kmh
Wind Gusts 7.2 mph11.6 kmh 17.4 mph28.0 kmh - -
Humidity 59% 73% 39% 59%
Pressure 29.04 in983.4 mb 29.12 in986.1 mb 29.03 in983.1 mb -
Hour Temp Dew Point Humidity Winds Wind Gusts Pressure Precip Precip Rate Daily Precip Total
07:15 PM 85.3°F29.6°C 69.3°F20.7°C 59% 4.3 mph NE6.9 kmh NE 7.2 mph11.6 kmh 29.04 in983.4 mb 0.00 in0.0 mm 0.00 in0.0 mm 0.00 in0.0 mm
07:00 PM 85.8°F29.9°C 69.3°F20.7°C 58% 4.7 mph NE7.6 kmh NE 8.3 mph13.4 kmh 29.04 in983.4 mb 0.00 in0.0 mm 0.00 in0.0 mm 0.00 in0.0 mm
06:45 PM 87.1°F30.6°C 70.0°F21.1°C 57% 7.4 mph NE11.9 kmh NE 8.9 mph14.3 kmh 29.04 in983.4 mb 0.00 in0.0 mm 0.00 in0.0 mm 0.00 in0.0 mm
06:30 PM 88.3°F31.3°C 70.1°F21.2°C 55% 6.9 mph NNE11.1 kmh NNE 7.4 mph11.9 kmh 29.04 in983.4 mb 0.00 in0.0 mm 0.00 in0.0 mm 0.00 in0.0 mm
06:15 PM 89.4°F31.9°C 70.5°F21.4°C 54% 2.7 mph NNE4.3 kmh NNE 10.1 mph16.3 kmh 29.04 in983.4 mb 0.00 in0.0 mm 0.00 in0.0 mm 0.00 in0.0 mm
06:00 PM 90.3°F32.4°C 70.8°F21.6°C 53% 6.5 mph NNE10.5 kmh NNE 12.1 mph19.5 kmh 29.03 in983.1 mb 0.00 in0.0 mm 0.00 in0.0 mm 0.00 in0.0 mm
05:45 PM 90.9°F32.7°C 71.3°F21.8°C 53% 10.7 mph NNE17.2 kmh NNE 10.7 mph17.2 kmh 29.03 in983.1 mb 0.00 in0.0 mm 0.00 in0.0 mm 0.00 in0.0 mm
05:30 PM 90.5°F32.5°C 71.5°F21.9°C 54% 9.6 mph NNE15.4 kmh NNE 13.4 mph21.6 kmh 29.04 in983.4 mb 0.00 in0.0 mm 0.00 in0.0 mm 0.00 in0.0 mm
05:15 PM 92.1°F33.4°C 71.9°F22.2°C 52% 8.7 mph NNE14.0 kmh NNE 11.6 mph18.7 kmh 29.03 in983.1 mb 0.00 in0.0 mm 0.00 in0.0 mm 0.00 in0.0 mm
05:00 PM 94.3°F34.6°C 72.9°F22.7°C 50% 8.5 mph NNE13.7 kmh NNE 13.6 mph21.9 kmh 29.03 in983.1 mb 0.00 in0.0 mm 0.00 in0.0 mm 0.00 in0.0 mm
04:45 PM 94.1°F34.5°C 72.7°F22.6°C 50% 4.5 mph N7.2 kmh N 11.4 mph18.3 kmh 29.03 in983.1 mb 0.00 in0.0 mm 0.00 in0.0 mm 0.00 in0.0 mm
04:30 PM 94.6°F34.8°C 72.6°F22.6°C 49% 5.8 mph NNE9.3 kmh NNE 12.8 mph20.6 kmh 29.04 in983.4 mb 0.00 in0.0 mm 0.00 in0.0 mm 0.00 in0.0 mm
04:15 PM 97.2°F36.2°C 73.5°F23.1°C 47% 8.9 mph NNE14.3 kmh NNE 16.8 mph27.0 kmh 29.04 in983.4 mb 0.00 in0.0 mm 0.00 in0.0 mm 0.00 in0.0 mm
04:00 PM 99.3°F37.4°C 74.8°F23.8°C 46% 11.2 mph N18.0 kmh N 13.9 mph22.4 kmh 29.04 in983.4 mb 0.00 in0.0 mm 0.00 in0.0 mm 0.00 in0.0 mm
03:45 PM 101.5°F38.6°C 75.4°F24.1°C 44% 6.9 mph NNE11.1 kmh NNE 17.4 mph28.0 kmh 29.04 in983.4 mb 0.00 in0.0 mm 0.00 in0.0 mm 0.00 in0.0 mm
03:30 PM 102.4°F39.1°C 76.2°F24.6°C 44% 7.8 mph N12.6 kmh N 14.1 mph22.7 kmh 29.04 in983.4 mb 0.00 in0.0 mm 0.00 in0.0 mm 0.00 in0.0 mm
03:15 PM 103.1°F39.5°C 76.2°F24.6°C 43% 8.9 mph NNE14.3 kmh NNE 13.9 mph22.4 kmh 29.05 in983.7 mb 0.00 in0.0 mm 0.00 in0.0 mm 0.00 in0.0 mm
03:00 PM 106.9°F41.6°C 77.6°F25.3°C 40% 7.6 mph N12.2 kmh N 16.3 mph26.2 kmh 29.05 in983.7 mb 0.00 in0.0 mm 0.00 in0.0 mm 0.00 in0.0 mm
02:45 PM 108.1°F42.3°C 77.8°F25.4°C 39% 2.0 mph NNE3.2 kmh NNE 9.2 mph14.8 kmh 29.06 in984.1 mb 0.00 in0.0 mm 0.00 in0.0 mm 0.00 in0.0 mm
02:30 PM 108.3°F42.4°C 78.8°F26.0°C 40% Calm Calm 6.3 mph10.1 kmh 29.06 in984.1 mb 0.00 in0.0 mm 0.00 in0.0 mm 0.00 in0.0 mm
02:15 PM 109.4°F43.0°C 79.7°F26.5°C 40% 3.6 mph NNE5.8 kmh NNE 6.9 mph11.1 kmh 29.07 in984.4 mb 0.00 in0.0 mm 0.00 in0.0 mm 0.00 in0.0 mm
02:00 PM 108.1°F42.3°C 80.1°F26.7°C 42% 2.2 mph N3.5 kmh N 4.9 mph7.9 kmh 29.08 in984.8 mb 0.00 in0.0 mm 0.00 in0.0 mm 0.00 in0.0 mm
01:45 PM 105.6°F40.9°C 79.2°F26.2°C 44% Calm Calm 5.6 mph9.0 kmh 29.09 in985.1 mb 0.00 in0.0 mm 0.00 in0.0 mm 0.00 in0.0 mm
01:30 PM 103.8°F39.9°C 77.5°F25.3°C 44% 1.3 mph NE2.1 kmh NE 7.2 mph11.6 kmh 29.09 in985.1 mb 0.00 in0.0 mm 0.00 in0.0 mm 0.00 in0.0 mm
01:15 PM 104.4°F40.2°C 78.7°F25.9°C 45% 2.7 mph NE4.3 kmh NE 6.3 mph10.1 kmh 29.09 in985.1 mb 0.00 in0.0 mm 0.00 in0.0 mm 0.00 in0.0 mm
01:00 PM 104.2°F40.1°C 79.2°F26.2°C 46% 2.5 mph NE4.0 kmh NE 7.6 mph12.2 kmh 29.10 in985.4 mb 0.00 in0.0 mm 0.00 in0.0 mm 0.00 in0.0 mm
12:45 PM 102.9°F39.4°C 78.7°F25.9°C 47% 1.8 mph NE2.9 kmh NE 4.9 mph7.9 kmh 29.11 in985.8 mb 0.00 in0.0 mm 0.00 in0.0 mm 0.00 in0.0 mm
12:30 PM 102.4°F39.1°C 78.9°F26.1°C 48% Calm Calm 3.4 mph5.5 kmh 29.11 in985.8 mb 0.00 in0.0 mm 0.00 in0.0 mm 0.00 in0.0 mm
12:15 PM 101.5°F38.6°C 78.7°F25.9°C 49% 3.6 mph NNE5.8 kmh NNE 4.0 mph6.4 kmh 29.11 in985.8 mb 0.00 in0.0 mm 0.00 in0.0 mm 0.00 in0.0 mm
12:00 PM 98.1°F36.7°C 76.3°F24.6°C 50% 3.4 mph NNE5.5 kmh NNE 4.9 mph7.9 kmh 29.11 in985.8 mb 0.00 in0.0 mm 0.00 in0.0 mm 0.00 in0.0 mm
11:45 AM 93.7°F34.3°C 74.0°F23.3°C 53% Calm Calm 1.8 mph2.9 kmh 29.12 in986.1 mb 0.00 in0.0 mm 0.00 in0.0 mm 0.00 in0.0 mm
11:30 AM 93.7°F34.3°C 74.0°F23.3°C 53% Calm Calm 3.1 mph5.0 kmh 29.12 in986.1 mb 0.00 in0.0 mm 0.00 in0.0 mm 0.00 in0.0 mm
11:15 AM 93.4°F34.1°C 74.2°F23.4°C 54% Calm Calm 2.0 mph3.2 kmh 29.12 in986.1 mb 0.00 in0.0 mm 0.00 in0.0 mm 0.00 in0.0 mm
11:00 AM 94.5°F34.7°C 74.7°F23.7°C 53% 0.7 mph NNE1.1 kmh NNE 2.7 mph4.3 kmh 29.12 in986.1 mb 0.00 in0.0 mm 0.00 in0.0 mm 0.00 in0.0 mm
10:45 AM 91.6°F33.1°C 74.1°F23.4°C 57% Calm Calm -- 29.12 in986.1 mb 0.00 in0.0 mm 0.00 in0.0 mm 0.00 in0.0 mm
10:30 AM 85.5°F29.7°C 70.5°F21.4°C 61% 2.0 mph NNE3.2 kmh NNE 3.6 mph5.8 kmh 29.11 in985.8 mb 0.00 in0.0 mm 0.00 in0.0 mm 0.00 in0.0 mm
10:15 AM 85.6°F29.8°C 70.2°F21.2°C 60% Calm Calm 2.0 mph3.2 kmh 29.12 in986.1 mb 0.00 in0.0 mm 0.00 in0.0 mm 0.00 in0.0 mm
10:00 AM 85.8°F29.9°C 70.4°F21.3°C 60% Calm Calm 3.1 mph5.0 kmh 29.12 in986.1 mb 0.00 in0.0 mm 0.00 in0.0 mm 0.00 in0.0 mm
09:45 AM 86.5°F30.3°C 70.5°F21.4°C 59% Calm Calm -- 29.12 in986.1 mb 0.00 in0.0 mm 0.00 in0.0 mm 0.00 in0.0 mm
09:30 AM 87.1°F30.6°C 70.5°F21.4°C 58% 1.6 mph NNE2.6 kmh NNE 2.9 mph4.7 kmh 29.12 in986.1 mb 0.00 in0.0 mm 0.00 in0.0 mm 0.00 in0.0 mm
09:15 AM 86.5°F30.3°C 70.5°F21.4°C 59% Calm Calm -- 29.12 in986.1 mb 0.00 in0.0 mm 0.00 in0.0 mm 0.00 in0.0 mm
09:00 AM 85.3°F29.6°C 70.8°F21.6°C 62% Calm Calm 2.9 mph4.7 kmh 29.12 in986.1 mb 0.00 in0.0 mm 0.00 in0.0 mm 0.00 in0.0 mm
08:45 AM 78.6°F25.9°C 68.4°F20.2°C 71% Calm Calm -- 29.12 in986.1 mb 0.00 in0.0 mm 0.00 in0.0 mm 0.00 in0.0 mm
08:30 AM 76.6°F24.8°C 65.8°F18.8°C 69% Calm Calm -- 29.12 in986.1 mb 0.00 in0.0 mm 0.00 in0.0 mm 0.00 in0.0 mm
08:15 AM 75.9°F24.4°C 65.5°F18.6°C 70% Calm Calm -- 29.11 in985.8 mb 0.00 in0.0 mm 0.00 in0.0 mm 0.00 in0.0 mm
08:00 AM 75.0°F23.9°C 65.0°F18.3°C 71% Calm Calm -- 29.11 in985.8 mb 0.00 in0.0 mm 0.00 in0.0 mm 0.00 in0.0 mm
07:45 AM 74.5°F23.6°C 64.5°F18.1°C 71% Calm Calm -- 29.11 in985.8 mb 0.00 in0.0 mm 0.00 in0.0 mm 0.00 in0.0 mm
07:30 AM 74.1°F23.4°C 64.5°F18.1°C 72% Calm Calm -- 29.11 in985.8 mb 0.00 in0.0 mm 0.00 in0.0 mm 0.00 in0.0 mm
07:15 AM 74.1°F23.4°C 64.9°F18.3°C 73% Calm Calm 2.7 mph4.3 kmh 29.11 in985.8 mb 0.00 in0.0 mm 0.00 in0.0 mm 0.00 in0.0 mm
07:00 AM 74.3°F23.5°C 65.1°F18.4°C 73% 5.1 mph E8.2 kmh E 10.3 mph16.6 kmh 29.11 in985.8 mb 0.00 in0.0 mm 0.00 in0.0 mm 0.00 in0.0 mm
06:45 AM 74.5°F23.6°C 64.9°F18.3°C 72% 6.0 mph NE9.7 kmh NE 7.8 mph12.6 kmh 29.11 in985.8 mb 0.00 in0.0 mm 0.00 in0.0 mm 0.00 in0.0 mm
06:30 AM 74.5°F23.6°C 64.5°F18.1°C 71% Calm Calm 2.5 mph4.0 kmh 29.12 in986.1 mb 0.00 in0.0 mm 0.00 in0.0 mm 0.00 in0.0 mm
06:15 AM 74.3°F23.5°C 64.7°F18.2°C 72% Calm Calm 3.6 mph5.8 kmh 29.11 in985.8 mb 0.00 in0.0 mm 0.00 in0.0 mm 0.00 in0.0 mm
06:00 AM 74.3°F23.5°C 64.7°F18.2°C 72% 2.9 mph NNE4.7 kmh NNE 5.4 mph8.7 kmh 29.10 in985.4 mb 0.00 in0.0 mm 0.00 in0.0 mm 0.00 in0.0 mm
05:45 AM 74.5°F23.6°C 65.3°F18.5°C 73% 4.5 mph NNE7.2 kmh NNE 7.2 mph11.6 kmh 29.10 in985.4 mb 0.00 in0.0 mm 0.00 in0.0 mm 0.00 in0.0 mm
05:30 AM 74.5°F23.6°C 65.3°F18.5°C 73% 4.7 mph NE7.6 kmh NE 6.7 mph10.8 kmh 29.10 in985.4 mb 0.00 in0.0 mm 0.00 in0.0 mm 0.00 in0.0 mm
05:15 AM 74.5°F23.6°C 64.9°F18.3°C 72% 4.0 mph NNE6.4 kmh NNE 9.2 mph14.8 kmh 29.10 in985.4 mb 0.00 in0.0 mm 0.00 in0.0 mm 0.00 in0.0 mm
05:00 AM 74.5°F23.6°C 64.9°F18.3°C 72% 3.1 mph NNE5.0 kmh NNE 6.9 mph11.1 kmh 29.10 in985.4 mb 0.00 in0.0 mm 0.00 in0.0 mm 0.00 in0.0 mm
04:45 AM 74.5°F23.6°C 64.9°F18.3°C 72% 5.4 mph NNE8.7 kmh NNE 9.2 mph14.8 kmh 29.10 in985.4 mb 0.00 in0.0 mm 0.00 in0.0 mm 0.00 in0.0 mm
04:30 AM 74.5°F23.6°C 64.5°F18.1°C 71% 2.0 mph NNE3.2 kmh NNE 6.3 mph10.1 kmh 29.09 in985.1 mb 0.00 in0.0 mm 0.00 in0.0 mm 0.00 in0.0 mm
04:15 AM 74.5°F23.6°C 64.5°F18.1°C 71% 5.6 mph NNE9.0 kmh NNE 9.6 mph15.4 kmh 29.09 in985.1 mb 0.00 in0.0 mm 0.00 in0.0 mm 0.00 in0.0 mm
04:00 AM 74.8°F23.8°C 64.8°F18.2°C 71% 3.4 mph NNE5.5 kmh NNE 13.6 mph21.9 kmh 29.09 in985.1 mb 0.00 in0.0 mm 0.00 in0.0 mm 0.00 in0.0 mm
03:45 AM 75.0°F23.9°C 65.0°F18.3°C 71% 5.6 mph NNE9.0 kmh NNE 11.4 mph18.3 kmh 29.10 in985.4 mb 0.00 in0.0 mm 0.00 in0.0 mm 0.00 in0.0 mm
03:30 AM 75.4°F24.1°C 64.5°F18.1°C 69% 3.8 mph NNE6.1 kmh NNE 9.2 mph14.8 kmh 29.10 in985.4 mb 0.00 in0.0 mm 0.00 in0.0 mm 0.00 in0.0 mm
03:15 AM 75.7°F24.3°C 64.0°F17.8°C 67% 6.0 mph NNE9.7 kmh NNE 11.4 mph18.3 kmh 29.10 in985.4 mb 0.00 in0.0 mm 0.00 in0.0 mm 0.00 in0.0 mm
03:00 AM 75.9°F24.4°C 63.3°F17.4°C 65% 2.5 mph NE4.0 kmh NE 6.5 mph10.5 kmh 29.10 in985.4 mb 0.00 in0.0 mm 0.00 in0.0 mm 0.00 in0.0 mm
02:45 AM 76.3°F24.6°C 63.2°F17.3°C 64% 3.6 mph NE5.8 kmh NE 6.3 mph10.1 kmh 29.10 in985.4 mb 0.00 in0.0 mm 0.00 in0.0 mm 0.00 in0.0 mm
02:30 AM 76.3°F24.6°C 63.6°F17.6°C 65% 2.7 mph NNE4.3 kmh NNE 4.9 mph7.9 kmh 29.10 in985.4 mb 0.00 in0.0 mm 0.00 in0.0 mm 0.00 in0.0 mm
02:15 AM 76.6°F24.8°C 64.0°F17.8°C 65% Calm Calm 0.2 mph0.3 kmh 29.10 in985.4 mb 0.00 in0.0 mm 0.00 in0.0 mm 0.00 in0.0 mm
02:00 AM 76.6°F24.8°C 63.5°F17.5°C 64% Calm Calm 2.9 mph4.7 kmh 29.10 in985.4 mb 0.00 in0.0 mm 0.00 in0.0 mm 0.00 in0.0 mm
01:45 AM 76.8°F24.9°C 63.7°F17.6°C 64% 1.1 mph NNE1.8 kmh NNE 2.0 mph3.2 kmh 29.10 in985.4 mb 0.00 in0.0 mm 0.00 in0.0 mm 0.00 in0.0 mm
01:30 AM 77.2°F25.1°C 63.6°F17.6°C 63% Calm Calm -- 29.10 in985.4 mb 0.00 in0.0 mm 0.00 in0.0 mm 0.00 in0.0 mm
01:15 AM 77.4°F25.2°C 64.2°F17.9°C 64% Calm Calm -- 29.10 in985.4 mb 0.00 in0.0 mm 0.00 in0.0 mm 0.00 in0.0 mm
01:00 AM 77.9°F25.5°C 64.7°F18.2°C 64% Calm Calm 3.6 mph5.8 kmh 29.10 in985.4 mb 0.00 in0.0 mm 0.00 in0.0 mm 0.00 in0.0 mm
12:45 AM 78.1°F25.6°C 64.0°F17.8°C 62% Calm Calm -- 29.10 in985.4 mb 0.00 in0.0 mm 0.00 in0.0 mm 0.00 in0.0 mm
12:30 AM 78.6°F25.9°C 65.4°F18.6°C 64% Calm Calm -- 29.10 in985.4 mb 0.00 in0.0 mm 0.00 in0.0 mm 0.00 in0.0 mm
12:15 AM 78.8°F26.0°C 65.2°F18.4°C 63% Calm Calm 2.5 mph4.0 kmh 29.10 in985.4 mb 0.00 in0.0 mm 0.00 in0.0 mm 0.00 in0.0 mm
12:00 AM 79.0°F26.1°C 64.9°F18.3°C 62% 2.5 mph NE4.0 kmh NE 3.6 mph5.8 kmh 29.11 in985.8 mb 0.00 in0.0 mm 0.00 in0.0 mm 0.00 in0.0 mm